Polkville, Mississippi
Current Conditions -  °F | °C
As of 3:54 AM on Monday 22 Dec 2014 (Local Time) from KJAN Reporting Station
Haze Haze  
Wind Chill: 52°   Ceiling: 300
Heat Index: 52°   Visibility: 4mi
Dew Point: 51°   Wind: 8mph
Humidity: 97%   Direction: 140°SE
Pressure: 29.88"   Gusts: NA
Location:  32.4637°N, 89.5548°W
Report Text: KJAN 220954Z AUTO 14007KT 4SM BR OVC003 11/11 A2988 RMK AO2 SLP118 T01110106
Loading
Personal Weather Stations






























Interactive Weather Map New forecast layout! Learn more

10-Day Weather Forecast

Advertisements
Track Severe Weather on mobile